Accueil
METAR-TAF:

METAR-TAF

Aéroports :

Aéroport de Polokwane/Pietersburg

Pietersburg, Afrique du Sud

latitude: 23-50-43S, longitude: 29-27-31E, altitude: 1242 m

Observation

Le bulletin a été fait il y a 1 heure et 19 minutes, à 11:00 UTC
Vent 5 kt de nord-est
Température 21°C
Humidité 33%
Pression 1030 hPa
Visibilité 10 km ou plus
pas de nuages en-dessous de 1500 mètres et pas de cumulonimbus.

METAR: FAPP 141100Z 04005KT CAVOK 21/04 Q1030 NOSIG

Heure: 14:19 (12:19 UTC)

Prévision

Le bulletin a été fait il y a 3 heures et 19 minutes, à 09:00 UTC
Prévision valable du 14 à 10 UTC au 14 à 18 UTC
Vent 3 kt de direction variable
Visibilité 10 km ou plus
pas de nuages en-dessous de 1500 mètres et pas de cumulonimbus.
Evoluant progressivement
du 14 à 15 UTC au 14 à 17 UTC
Vent 8 kt de nord-est

TAF: FAPP 140900Z 1410/1418 VRB03KT CAVOK TX21/1413Z TN11/1418Z BECMG 1415/1417 04008KT

Observations et prévisions météorologiques de plus de 4000 aéroports (messages METAR et TAF).

Les stations disponibles sont représentées par des disques jaunes et rouges sur la carte.

Passer la souris dessus pour voir le nom de la station.

Cliquer dessus pour voir les observations et prévisions météorologiques.

Pour changer de carte: cliquez sur les boutons verts avec une croix noire pour zoomer, sur le bouton vert avec un tiret pour effectuer un zoom arrière, ou sur les flèches vertes pour les cartes adjacentes.


METAR-TAF: